Portada
METAR-TAF:

METAR-TAF

Aeropuertos :

Berlín, Alemania

Aeropuerto de Berlín-Tegel

latitud: 52-34N, longitud: 013-19E, altitud: 37 m

Observación

El informe se hizo hace 28 minutos, a las 09:20 UTC
Viento 3 kt con dirección variable
Temperatura 20°C
Humedad 53%
Presión 1032 hPa
Visibilidad 10 km o más
sin nubes por debajo de 1500 m y sin presencia de cumulonimbus.

METAR: EDDT 190920Z VRB03KT CAVOK 20/10 Q1032 NOSIG

Hora: 11:48 (09:48 UTC)

Pronóstico

El informe se hizo hace 4 horas y 48 minutos, a las 05:00 UTC
Pronóstico válido del 19 a las 06 UTC al 20 a las 06 UTC
Viento 3 kt con dirección variable
Visibilidad 10 km o más
sin nubes por debajo de 1500 m y sin presencia de cumulonimbus.

TAF: EDDT 190500Z 1906/2006 VRB03KT CAVOK

Observaciones y pronósticos meteorológicos de más de 4000 aeropuertos (mensajes METAR y TAF).

Los puntos amarillos y rojos representan las estaciones disponibles.

Ponga el ratón en el punto deseado para ver el nombre de la estación.

Haga clic para ver las observaciones y los pronósticos meteorológicos.

Para cambiar el mapa : haga clic en los botones verdes con una cruz de color negro para hacer un zoom, en el botón verde con un guión para alejar o en las flechas verdes para mapas adyacentes.


METAR-TAF: